sensor_id;sensor_type;location;lat;lon;timestamp;pressure;altitude;pressure_sealevel;temperature;humidity
39051;BME280;24805;55.852;37.644;2023-05-23T00:01:32;99775.41;;;14.75;62.43
39051;BME280;24805;55.852;37.644;2023-05-23T00:06:37;99777.63;;;14.72;62.41
39051;BME280;24805;55.852;37.644;2023-05-23T00:11:40;99780.06;;;14.67;62.71
39051;BME280;24805;55.852;37.644;2023-05-23T00:16:46;99779.81;;;14.62;63.06
39051;BME280;24805;55.852;37.644;2023-05-23T00:21:50;99775.28;;;14.56;63.37
39051;BME280;24805;55.852;37.644;2023-05-23T00:26:54;99774.66;;;14.54;62.89
39051;BME280;24805;55.852;37.644;2023-05-23T00:31:56;99776.91;;;14.50;63.08
39051;BME280;24805;55.852;37.644;2023-05-23T00:36:58;99775.25;;;14.49;62.81
39051;BME280;24805;55.852;37.644;2023-05-23T00:42:03;99770.09;;;14.47;62.93
39051;BME280;24805;55.852;37.644;2023-05-23T00:47:06;99780.97;;;14.46;62.71
39051;BME280;24805;55.852;37.644;2023-05-23T00:52:09;99772.72;;;14.41;62.95
39051;BME280;24805;55.852;37.644;2023-05-23T00:57:12;99772.88;;;14.39;63.11
39051;BME280;24805;55.852;37.644;2023-05-23T01:02:14;99768.59;;;14.38;62.65
39051;BME280;24805;55.852;37.644;2023-05-23T01:07:16;99765.09;;;14.38;62.50
39051;BME280;24805;55.852;37.644;2023-05-23T01:28:05;99754.94;;;14.55;62.30
39051;BME280;24805;55.852;37.644;2023-05-23T01:33:09;99752.88;;;14.50;61.52
39051;BME280;24805;55.852;37.644;2023-05-23T01:38:12;99737.44;;;14.45;60.98
39051;BME280;24805;55.852;37.644;2023-05-23T01:43:15;99757.22;;;14.58;60.15
39051;BME280;24805;55.852;37.644;2023-05-23T01:48:17;99771.63;;;14.63;59.96
39051;BME280;24805;55.852;37.644;2023-05-23T01:53:21;99763.69;;;14.76;59.53
39051;BME280;24805;55.852;37.644;2023-05-23T01:58:24;99756.31;;;14.78;58.89
39051;BME280;24805;55.852;37.644;2023-05-23T02:03:27;99756.13;;;14.87;58.79
39051;BME280;24805;55.852;37.644;2023-05-23T02:08:29;99744.88;;;14.98;58.92
39051;BME280;24805;55.852;37.644;2023-05-23T02:13:31;99756.22;;;15.13;58.43
39051;BME280;24805;55.852;37.644;2023-05-23T02:18:34;99734.25;;;15.24;57.67
39051;BME280;24805;55.852;37.644;2023-05-23T02:23:39;99754.84;;;15.50;57.02
39051;BME280;24805;55.852;37.644;2023-05-23T02:28:42;99746.88;;;15.57;56.63
39051;BME280;24805;55.852;37.644;2023-05-23T02:33:44;99734.94;;;15.59;56.20
39051;BME280;24805;55.852;37.644;2023-05-23T02:38:46;99733.69;;;15.62;55.79
39051;BME280;24805;55.852;37.644;2023-05-23T02:43:49;99739.47;;;15.65;56.00
39051;BME280;24805;55.852;37.644;2023-05-23T02:48:51;99739.06;;;15.68;54.71
39051;BME280;24805;55.852;37.644;2023-05-23T02:53:53;99738.84;;;15.83;53.73
39051;BME280;24805;55.852;37.644;2023-05-23T02:58:55;99740.72;;;15.89;52.73
39051;BME280;24805;55.852;37.644;2023-05-23T03:03:57;99747.09;;;15.88;53.36
39051;BME280;24805;55.852;37.644;2023-05-23T03:09:00;99745.84;;;15.84;52.98
39051;BME280;24805;55.852;37.644;2023-05-23T03:14:02;99755.72;;;15.83;52.85
39051;BME280;24805;55.852;37.644;2023-05-23T03:19:04;99760.06;;;15.91;52.50
39051;BME280;24805;55.852;37.644;2023-05-23T03:24:06;99744.59;;;16.00;52.66
39051;BME280;24805;55.852;37.644;2023-05-23T03:29:09;99741.69;;;16.21;51.78
39051;BME280;24805;55.852;37.644;2023-05-23T03:34:13;99740.81;;;16.47;51.44
39051;BME280;24805;55.852;37.644;2023-05-23T03:39:15;99747.38;;;16.71;51.03
39051;BME280;24805;55.852;37.644;2023-05-23T03:44:17;99729.78;;;16.95;51.03
39051;BME280;24805;55.852;37.644;2023-05-23T03:49:19;99727.38;;;17.18;50.19
39051;BME280;24805;55.852;37.644;2023-05-23T03:54:21;99733.16;;;17.46;49.70
39051;BME280;24805;55.852;37.644;2023-05-23T03:59:25;99730.75;;;17.70;49.19
39051;BME280;24805;55.852;37.644;2023-05-23T04:04:28;99730.34;;;17.98;48.51
39051;BME280;24805;55.852;37.644;2023-05-23T04:09:31;99734.88;;;17.97;48.54
39051;BME280;24805;55.852;37.644;2023-05-23T04:14:33;99735.31;;;17.94;48.45
39051;BME280;24805;55.852;37.644;2023-05-23T04:19:36;99733.72;;;17.86;48.93
39051;BME280;24805;55.852;37.644;2023-05-23T04:24:39;99729.69;;;17.77;49.12
39051;BME280;24805;55.852;37.644;2023-05-23T04:29:41;99717.94;;;17.72;49.11
39051;BME280;24805;55.852;37.644;2023-05-23T04:34:45;99721.16;;;18.05;48.99
39051;BME280;24805;55.852;37.644;2023-05-23T04:39:47;99722.31;;;18.34;47.86
39051;BME280;24805;55.852;37.644;2023-05-23T04:45:09;99711.22;;;18.67;47.57
39051;BME280;24805;55.852;37.644;2023-05-23T04:50:32;99738.28;;;19.02;46.73
39051;BME280;24805;55.852;37.644;2023-05-23T04:55:37;99735.75;;;19.19;46.18
39051;BME280;24805;55.852;37.644;2023-05-23T05:00:45;99735.38;;;19.34;46.16
39051;BME280;24805;55.852;37.644;2023-05-23T05:05:49;99742.41;;;19.46;45.94
39051;BME280;24805;55.852;37.644;2023-05-23T05:10:53;99752.72;;;19.49;46.44
39051;BME280;24805;55.852;37.644;2023-05-23T05:15:56;99763.75;;;19.30;46.83
39051;BME280;24805;55.852;37.644;2023-05-23T05:21:00;99771.13;;;19.04;47.68
39051;BME280;24805;55.852;37.644;2023-05-23T05:26:03;99765.31;;;19.07;47.76
39051;BME280;24805;55.852;37.644;2023-05-23T05:31:06;99772.94;;;19.10;47.23
39051;BME280;24805;55.852;37.644;2023-05-23T05:36:10;99765.41;;;19.31;46.69
39051;BME280;24805;55.852;37.644;2023-05-23T05:41:12;99763.66;;;19.54;46.44
39051;BME280;24805;55.852;37.644;2023-05-23T05:46:20;99759.78;;;19.62;45.96
39051;BME280;24805;55.852;37.644;2023-05-23T05:51:23;99753.03;;;19.71;45.27
39051;BME280;24805;55.852;37.644;2023-05-23T05:56:25;99750.03;;;19.49;45.72
39051;BME280;24805;55.852;37.644;2023-05-23T06:01:29;99749.22;;;19.49;46.21
39051;BME280;24805;55.852;37.644;2023-05-23T06:06:31;99736.56;;;19.49;46.18
39051;BME280;24805;55.852;37.644;2023-05-23T06:11:34;99745.03;;;19.53;46.19
39051;BME280;24805;55.852;37.644;2023-05-23T06:16:40;99723.28;;;19.54;46.33
39051;BME280;24805;55.852;37.644;2023-05-23T06:21:42;99726.94;;;19.83;46.63
39051;BME280;24805;55.852;37.644;2023-05-23T06:26:45;99722.16;;;20.32;45.71
39051;BME280;24805;55.852;37.644;2023-05-23T06:31:47;99695.97;;;20.68;44.86
39051;BME280;24805;55.852;37.644;2023-05-23T06:36:50;99713.75;;;21.20;43.73
39051;BME280;24805;55.852;37.644;2023-05-23T06:41:54;99711.16;;;21.42;42.97
39051;BME280;24805;55.852;37.644;2023-05-23T06:46:56;99699.84;;;21.57;42.88
39051;BME280;24805;55.852;37.644;2023-05-23T06:51:59;99707.19;;;21.95;42.66
39051;BME280;24805;55.852;37.644;2023-05-23T06:57:02;99695.91;;;22.58;40.36
39051;BME280;24805;55.852;37.644;2023-05-23T07:02:04;99689.63;;;23.23;39.80
39051;BME280;24805;55.852;37.644;2023-05-23T07:07:07;99681.06;;;24.37;38.32
39051;BME280;24805;55.852;37.644;2023-05-23T07:12:09;99676.72;;;25.60;35.81
39051;BME280;24805;55.852;37.644;2023-05-23T07:17:15;99674.81;;;27.35;33.68
39051;BME280;24805;55.852;37.644;2023-05-23T07:22:18;99667.13;;;28.00;30.85
39051;BME280;24805;55.852;37.644;2023-05-23T07:27:21;99667.22;;;28.66;30.59
39051;BME280;24805;55.852;37.644;2023-05-23T07:32:23;99674.94;;;29.02;29.29
39051;BME280;24805;55.852;37.644;2023-05-23T07:37:26;99674.22;;;29.15;28.95
39051;BME280;24805;55.852;37.644;2023-05-23T07:42:29;99679.50;;;28.21;29.51
39051;BME280;24805;55.852;37.644;2023-05-23T07:47:31;99670.53;;;27.19;31.07
39051;BME280;24805;55.852;37.644;2023-05-23T07:52:34;99678.00;;;26.38;32.85
39051;BME280;24805;55.852;37.644;2023-05-23T07:57:39;99688.13;;;26.13;33.58
39051;BME280;24805;55.852;37.644;2023-05-23T08:02:42;99693.31;;;25.79;34.13
39051;BME280;24805;55.852;37.644;2023-05-23T08:07:53;99674.88;;;25.76;34.49
39051;BME280;24805;55.852;37.644;2023-05-23T08:12:56;99692.66;;;26.58;33.99
39051;BME280;24805;55.852;37.644;2023-05-23T08:18:06;99684.59;;;27.36;32.74
39051;BME280;24805;55.852;37.644;2023-05-23T08:23:09;99679.56;;;27.53;32.42
39051;BME280;24805;55.852;37.644;2023-05-23T08:28:13;99692.13;;;27.10;32.89
39051;BME280;24805;55.852;37.644;2023-05-23T08:33:27;99683.88;;;26.66;34.20
39051;BME280;24805;55.852;37.644;2023-05-23T08:38:32;99679.53;;;26.60;34.71
39051;BME280;24805;55.852;37.644;2023-05-23T08:43:45;99676.06;;;27.08;34.35
39051;BME280;24805;55.852;37.644;2023-05-23T08:48:54;99687.19;;;27.85;32.80
39051;BME280;24805;55.852;37.644;2023-05-23T08:53:59;99679.28;;;27.55;33.20
39051;BME280;24805;55.852;37.644;2023-05-23T08:59:03;99672.53;;;27.08;33.88
39051;BME280;24805;55.852;37.644;2023-05-23T09:04:06;99668.78;;;26.94;34.30
39051;BME280;24805;55.852;37.644;2023-05-23T09:09:20;99687.59;;;26.00;35.19
39051;BME280;24805;55.852;37.644;2023-05-23T09:14:23;99677.78;;;25.18;37.50
39051;BME280;24805;55.852;37.644;2023-05-23T09:19:29;99689.34;;;24.73;38.59
39051;BME280;24805;55.852;37.644;2023-05-23T09:24:40;99679.84;;;24.23;40.78
39051;BME280;24805;55.852;37.644;2023-05-23T09:29:44;99713.88;;;23.67;42.34
39051;BME280;24805;55.852;37.644;2023-05-23T09:34:59;99693.31;;;23.12;42.89
39051;BME280;24805;55.852;37.644;2023-05-23T09:40:08;99715.66;;;22.20;46.23
39051;BME280;24805;55.852;37.644;2023-05-23T09:45:15;99719.38;;;21.81;47.54
39051;BME280;24805;55.852;37.644;2023-05-23T09:50:18;99711.69;;;21.73;48.56
39051;BME280;24805;55.852;37.644;2023-05-23T09:55:22;99714.44;;;21.61;48.03
39051;BME280;24805;55.852;37.644;2023-05-23T10:00:24;99710.03;;;21.38;48.55
39051;BME280;24805;55.852;37.644;2023-05-23T10:05:37;99722.03;;;21.30;48.44
39051;BME280;24805;55.852;37.644;2023-05-23T10:11:24;99724.00;;;21.35;48.45
39051;BME280;24805;55.852;37.644;2023-05-23T10:16:28;99713.41;;;21.17;49.69
39051;BME280;24805;55.852;37.644;2023-05-23T10:21:35;99708.00;;;21.17;50.00
39051;BME280;24805;55.852;37.644;2023-05-23T10:26:39;99723.19;;;21.35;49.72
39051;BME280;24805;55.852;37.644;2023-05-23T10:31:42;99707.53;;;21.20;50.42
39051;BME280;24805;55.852;37.644;2023-05-23T10:42:18;99716.41;;;21.32;50.62
39051;BME280;24805;55.852;37.644;2023-05-23T10:47:27;99724.91;;;21.12;50.98
39051;BME280;24805;55.852;37.644;2023-05-23T10:52:38;99723.22;;;20.94;52.98
39051;BME280;24805;55.852;37.644;2023-05-23T10:57:43;99735.84;;;20.66;54.00
39051;BME280;24805;55.852;37.644;2023-05-23T11:02:52;99728.25;;;20.51;55.47
39051;BME280;24805;55.852;37.644;2023-05-23T11:08:12;99729.31;;;20.50;53.95
39051;BME280;24805;55.852;37.644;2023-05-23T11:13:15;99706.34;;;20.01;56.96
39051;BME280;24805;55.852;37.644;2023-05-23T11:18:27;99721.34;;;20.08;58.08
39051;BME280;24805;55.852;37.644;2023-05-23T11:23:40;99720.63;;;20.01;58.61
39051;BME280;24805;55.852;37.644;2023-05-23T11:28:55;99724.03;;;19.73;58.69
39051;BME280;24805;55.852;37.644;2023-05-23T11:33:58;99721.69;;;19.35;59.19
39051;BME280;24805;55.852;37.644;2023-05-23T11:39:02;99737.78;;;19.23;59.81
39051;BME280;24805;55.852;37.644;2023-05-23T11:44:11;99732.69;;;19.34;60.57
39051;BME280;24805;55.852;37.644;2023-05-23T11:49:14;99733.59;;;19.27;60.44
39051;BME280;24805;55.852;37.644;2023-05-23T11:54:22;99720.25;;;19.51;59.72
39051;BME280;24805;55.852;37.644;2023-05-23T11:59:25;99723.06;;;19.79;58.92
39051;BME280;24805;55.852;37.644;2023-05-23T12:04:28;99724.03;;;20.20;58.24
39051;BME280;24805;55.852;37.644;2023-05-23T12:09:30;99722.59;;;21.04;56.56
39051;BME280;24805;55.852;37.644;2023-05-23T12:14:33;99719.56;;;21.74;54.35
39051;BME280;24805;55.852;37.644;2023-05-23T12:19:35;99712.19;;;22.03;52.75
39051;BME280;24805;55.852;37.644;2023-05-23T12:24:45;99713.91;;;22.48;52.11
39051;BME280;24805;55.852;37.644;2023-05-23T12:29:50;99693.47;;;22.35;50.58
39051;BME280;24805;55.852;37.644;2023-05-23T12:34:55;99672.59;;;22.30;50.72
39051;BME280;24805;55.852;37.644;2023-05-23T12:39:57;99688.50;;;22.49;49.91
39051;BME280;24805;55.852;37.644;2023-05-23T12:45:13;99679.06;;;22.95;49.87
39051;BME280;24805;55.852;37.644;2023-05-23T12:50:16;99679.59;;;23.51;48.39
39051;BME280;24805;55.852;37.644;2023-05-23T12:55:18;99661.25;;;24.37;46.05
39051;BME280;24805;55.852;37.644;2023-05-23T13:00:21;99657.13;;;25.02;44.16
39051;BME280;24805;55.852;37.644;2023-05-23T13:05:23;99658.53;;;25.30;43.83
39051;BME280;24805;55.852;37.644;2023-05-23T13:10:25;99647.41;;;25.52;43.25
39051;BME280;24805;55.852;37.644;2023-05-23T13:15:30;99659.91;;;25.93;42.63
39051;BME280;24805;55.852;37.644;2023-05-23T13:20:32;99646.72;;;26.41;41.14
39051;BME280;24805;55.852;37.644;2023-05-23T13:25:35;99653.53;;;26.93;40.42
39051;BME280;24805;55.852;37.644;2023-05-23T13:30:37;99649.22;;;27.31;39.61
39051;BME280;24805;55.852;37.644;2023-05-23T13:35:39;99650.69;;;27.52;39.57
39051;BME280;24805;55.852;37.644;2023-05-23T13:40:42;99648.53;;;27.49;38.66
39051;BME280;24805;55.852;37.644;2023-05-23T13:45:44;99645.56;;;27.12;38.92
39051;BME280;24805;55.852;37.644;2023-05-23T13:50:48;99650.00;;;26.92;40.00
39051;BME280;24805;55.852;37.644;2023-05-23T13:55:50;99645.31;;;26.54;40.06
39051;BME280;24805;55.852;37.644;2023-05-23T14:00:53;99643.22;;;26.35;40.78
39051;BME280;24805;55.852;37.644;2023-05-23T14:05:56;99650.34;;;26.11;41.34
39051;BME280;24805;55.852;37.644;2023-05-23T14:10:58;99640.88;;;25.88;41.64
39051;BME280;24805;55.852;37.644;2023-05-23T14:16:00;99639.25;;;25.47;42.40
39051;BME280;24805;55.852;37.644;2023-05-23T14:21:02;99620.22;;;24.96;43.15
39051;BME280;24805;55.852;37.644;2023-05-23T14:26:05;99635.03;;;24.63;44.31
39051;BME280;24805;55.852;37.644;2023-05-23T14:31:07;99624.94;;;24.43;44.47
39051;BME280;24805;55.852;37.644;2023-05-23T14:36:09;99623.81;;;24.34;45.15
39051;BME280;24805;55.852;37.644;2023-05-23T14:41:12;99617.47;;;24.13;46.26
39051;BME280;24805;55.852;37.644;2023-05-23T14:46:16;99615.50;;;24.03;46.73
39051;BME280;24805;55.852;37.644;2023-05-23T14:51:19;99611.59;;;23.84;47.45
39051;BME280;24805;55.852;37.644;2023-05-23T14:56:41;99592.78;;;23.57;47.57
39051;BME280;24805;55.852;37.644;2023-05-23T15:01:43;99599.69;;;23.48;47.77
39051;BME280;24805;55.852;37.644;2023-05-23T15:06:46;99598.25;;;23.35;47.68
39051;BME280;24805;55.852;37.644;2023-05-23T15:11:49;99584.06;;;23.23;47.81
39051;BME280;24805;55.852;37.644;2023-05-23T15:16:51;99585.59;;;23.09;48.72
39051;BME280;24805;55.852;37.644;2023-05-23T15:21:53;99572.88;;;22.78;49.32
39051;BME280;24805;55.852;37.644;2023-05-23T15:26:55;99567.88;;;22.69;49.82
39051;BME280;24805;55.852;37.644;2023-05-23T15:32:17;99553.09;;;22.50;50.40
39051;BME280;24805;55.852;37.644;2023-05-23T15:37:21;99563.06;;;22.50;50.82
39051;BME280;24805;55.852;37.644;2023-05-23T15:42:23;99567.28;;;22.41;51.33
39051;BME280;24805;55.852;37.644;2023-05-23T15:47:25;99555.25;;;22.26;51.62
39051;BME280;24805;55.852;37.644;2023-05-23T15:52:28;99548.84;;;22.11;51.92
39051;BME280;24805;55.852;37.644;2023-05-23T15:57:31;99560.91;;;22.03;52.39
39051;BME280;24805;55.852;37.644;2023-05-23T16:02:34;99553.66;;;21.87;52.87
39051;BME280;24805;55.852;37.644;2023-05-23T16:07:36;99552.13;;;21.74;53.11
39051;BME280;24805;55.852;37.644;2023-05-23T16:12:38;99536.34;;;21.66;53.51
39051;BME280;24805;55.852;37.644;2023-05-23T16:17:40;99531.31;;;21.53;53.70
39051;BME280;24805;55.852;37.644;2023-05-23T16:22:42;99537.88;;;21.40;54.38
39051;BME280;24805;55.852;37.644;2023-05-23T16:27:46;99528.00;;;21.29;55.29
39051;BME280;24805;55.852;37.644;2023-05-23T16:32:48;99517.28;;;21.17;55.38
39051;BME280;24805;55.852;37.644;2023-05-23T16:37:50;99519.56;;;21.09;55.31
39051;BME280;24805;55.852;37.644;2023-05-23T16:42:53;99531.50;;;20.96;55.59
39051;BME280;24805;55.852;37.644;2023-05-23T16:47:55;99533.19;;;20.85;55.97
39051;BME280;24805;55.852;37.644;2023-05-23T16:52:57;99547.41;;;20.81;56.29
39051;BME280;24805;55.852;37.644;2023-05-23T16:57:59;99539.72;;;20.73;57.92
39051;BME280;24805;55.852;37.644;2023-05-23T17:03:02;99537.59;;;20.58;58.14
39051;BME280;24805;55.852;37.644;2023-05-23T17:08:04;99556.13;;;20.54;57.87
39051;BME280;24805;55.852;37.644;2023-05-23T17:13:07;99544.91;;;20.46;58.14
39051;BME280;24805;55.852;37.644;2023-05-23T17:18:09;99543.66;;;20.37;59.23
39051;BME280;24805;55.852;37.644;2023-05-23T17:23:11;99546.69;;;20.28;59.52
39051;BME280;24805;55.852;37.644;2023-05-23T17:28:13;99552.09;;;20.28;60.13
39051;BME280;24805;55.852;37.644;2023-05-23T17:33:15;99540.63;;;20.21;59.99
39051;BME280;24805;55.852;37.644;2023-05-23T17:38:18;99524.03;;;20.13;60.04
39051;BME280;24805;55.852;37.644;2023-05-23T17:43:20;99480.69;;;19.86;59.85
39051;BME280;24805;55.852;37.644;2023-05-23T17:48:22;99494.72;;;19.88;60.34
39051;BME280;24805;55.852;37.644;2023-05-23T17:53:44;99505.19;;;20.41;56.77
39051;BME280;24805;55.852;37.644;2023-05-23T17:58:46;99505.28;;;19.78;60.98
39051;BME280;24805;55.852;37.644;2023-05-23T18:03:48;99502.03;;;19.64;61.36
39051;BME280;24805;55.852;37.644;2023-05-23T18:08:52;99488.22;;;19.60;61.78
39051;BME280;24805;55.852;37.644;2023-05-23T18:13:55;99492.94;;;19.53;62.09
39051;BME280;24805;55.852;37.644;2023-05-23T18:18:57;99495.03;;;19.51;61.96
39051;BME280;24805;55.852;37.644;2023-05-23T18:24:01;99495.47;;;19.48;62.49
39051;BME280;24805;55.852;37.644;2023-05-23T18:29:04;99480.25;;;19.42;62.23
39051;BME280;24805;55.852;37.644;2023-05-23T18:34:07;99478.53;;;19.36;62.25
39051;BME280;24805;55.852;37.644;2023-05-23T18:39:09;99482.75;;;19.32;62.52
39051;BME280;24805;55.852;37.644;2023-05-23T18:44:11;99477.84;;;19.29;62.58
39051;BME280;24805;55.852;37.644;2023-05-23T18:49:14;99458.75;;;19.19;62.85
39051;BME280;24805;55.852;37.644;2023-05-23T18:54:16;99473.50;;;19.28;62.30
39051;BME280;24805;55.852;37.644;2023-05-23T18:59:19;99476.78;;;19.30;62.14
39051;BME280;24805;55.852;37.644;2023-05-23T19:04:21;99476.53;;;19.32;62.11
39051;BME280;24805;55.852;37.644;2023-05-23T19:09:23;99484.97;;;19.35;62.07
39051;BME280;24805;55.852;37.644;2023-05-23T19:14:26;99476.09;;;19.35;61.68
39051;BME280;24805;55.852;37.644;2023-05-23T19:19:28;99479.94;;;19.27;62.42
39051;BME280;24805;55.852;37.644;2023-05-23T19:24:32;99482.72;;;19.20;62.91
39051;BME280;24805;55.852;37.644;2023-05-23T19:29:34;99471.88;;;19.15;62.82
39051;BME280;24805;55.852;37.644;2023-05-23T19:34:36;99465.56;;;19.10;63.37
39051;BME280;24805;55.852;37.644;2023-05-23T19:39:39;99467.06;;;19.06;63.26
39051;BME280;24805;55.852;37.644;2023-05-23T19:44:46;99461.94;;;19.04;63.14
39051;BME280;24805;55.852;37.644;2023-05-23T19:49:48;99461.47;;;19.07;62.96
39051;BME280;24805;55.852;37.644;2023-05-23T19:54:50;99447.44;;;19.05;62.99
39051;BME280;24805;55.852;37.644;2023-05-23T19:59:52;99441.94;;;19.00;62.90
39051;BME280;24805;55.852;37.644;2023-05-23T20:04:54;99433.78;;;18.95;62.69
39051;BME280;24805;55.852;37.644;2023-05-23T20:09:57;99437.88;;;18.98;62.90
39051;BME280;24805;55.852;37.644;2023-05-23T20:14:59;99440.78;;;18.96;63.00
39051;BME280;24805;55.852;37.644;2023-05-23T20:20:01;99442.31;;;18.92;63.22
39051;BME280;24805;55.852;37.644;2023-05-23T20:25:05;99433.88;;;18.88;63.27
39051;BME280;24805;55.852;37.644;2023-05-23T20:30:08;99440.53;;;18.86;63.34
39051;BME280;24805;55.852;37.644;2023-05-23T20:35:10;99425.22;;;18.75;63.42
39051;BME280;24805;55.852;37.644;2023-05-23T20:40:12;99434.56;;;18.72;63.56
39051;BME280;24805;55.852;37.644;2023-05-23T20:45:14;99427.22;;;18.68;63.36
39051;BME280;24805;55.852;37.644;2023-05-23T20:50:16;99433.28;;;18.63;63.81
39051;BME280;24805;55.852;37.644;2023-05-23T20:55:20;99429.84;;;18.56;63.87
39051;BME280;24805;55.852;37.644;2023-05-23T21:00:23;99434.53;;;18.61;63.71
39051;BME280;24805;55.852;37.644;2023-05-23T21:05:25;99438.88;;;18.62;63.71
39051;BME280;24805;55.852;37.644;2023-05-23T21:10:27;99430.44;;;18.58;63.87
39051;BME280;24805;55.852;37.644;2023-05-23T21:15:29;99441.56;;;18.62;63.71
39051;BME280;24805;55.852;37.644;2023-05-23T21:20:32;99436.41;;;18.60;63.77
39051;BME280;24805;55.852;37.644;2023-05-23T21:25:34;99445.88;;;18.63;63.39
39051;BME280;24805;55.852;37.644;2023-05-23T21:30:36;99414.19;;;18.53;63.75
39051;BME280;24805;55.852;37.644;2023-05-23T21:35:39;99431.63;;;18.62;63.32
39051;BME280;24805;55.852;37.644;2023-05-23T21:40:41;99420.28;;;18.60;63.29
39051;BME280;24805;55.852;37.644;2023-05-23T21:45:44;99429.63;;;18.57;63.32
39051;BME280;24805;55.852;37.644;2023-05-23T21:50:46;99424.59;;;18.49;63.24
39051;BME280;24805;55.852;37.644;2023-05-23T21:55:48;99424.34;;;18.51;62.96
39051;BME280;24805;55.852;37.644;2023-05-23T22:00:51;99418.63;;;18.47;63.15
39051;BME280;24805;55.852;37.644;2023-05-23T22:05:53;99404.81;;;18.44;63.01
39051;BME280;24805;55.852;37.644;2023-05-23T22:10:55;99410.66;;;18.41;62.96
39051;BME280;24805;55.852;37.644;2023-05-23T22:15:57;99404.13;;;18.37;63.05
39051;BME280;24805;55.852;37.644;2023-05-23T22:21:00;99416.97;;;18.35;62.89
39051;BME280;24805;55.852;37.644;2023-05-23T22:26:03;99411.25;;;18.31;62.84
39051;BME280;24805;55.852;37.644;2023-05-23T22:31:05;99409.22;;;18.27;62.73
39051;BME280;24805;55.852;37.644;2023-05-23T22:36:08;99411.78;;;18.21;62.69
39051;BME280;24805;55.852;37.644;2023-05-23T22:41:11;99412.00;;;18.20;62.81
39051;BME280;24805;55.852;37.644;2023-05-23T22:46:13;99412.00;;;18.20;62.19
39051;BME280;24805;55.852;37.644;2023-05-23T22:51:15;99398.47;;;18.15;61.94
39051;BME280;24805;55.852;37.644;2023-05-23T22:56:20;99407.97;;;18.29;61.56
39051;BME280;24805;55.852;37.644;2023-05-23T23:01:22;99407.97;;;18.29;61.36
39051;BME280;24805;55.852;37.644;2023-05-23T23:06:24;99408.56;;;18.31;61.32
39051;BME280;24805;55.852;37.644;2023-05-23T23:11:27;99408.31;;;18.33;61.17
39051;BME280;24805;55.852;37.644;2023-05-23T23:16:29;99419.66;;;18.35;60.42
39051;BME280;24805;55.852;37.644;2023-05-23T23:21:31;99411.16;;;18.38;59.73
39051;BME280;24805;55.852;37.644;2023-05-23T23:26:33;99417.66;;;18.42;59.50
39051;BME280;24805;55.852;37.644;2023-05-23T23:31:35;99409.38;;;18.43;59.67
39051;BME280;24805;55.852;37.644;2023-05-23T23:36:37;99405.66;;;18.44;58.61
39051;BME280;24805;55.852;37.644;2023-05-23T23:41:40;99405.19;;;18.47;57.17
39051;BME280;24805;55.852;37.644;2023-05-23T23:46:42;99401.44;;;18.48;57.99
39051;BME280;24805;55.852;37.644;2023-05-23T23:51:44;99401.09;;;18.45;56.95
39051;BME280;24805;55.852;37.644;2023-05-23T23:56:46;99386.47;;;18.41;56.21
